sensor_id;sensor_type;location;lat;lon;timestamp;temperature;humidity
25342;DHT22;13298;48.792;9.154;2023-08-20T00:01:28;22.00;99.90
25342;DHT22;13298;48.792;9.154;2023-08-20T00:03:54;21.90;99.90
25342;DHT22;13298;48.792;9.154;2023-08-20T00:06:22;22.00;99.90
25342;DHT22;13298;48.792;9.154;2023-08-20T00:08:48;22.00;99.90
25342;DHT22;13298;48.792;9.154;2023-08-20T00:11:14;22.00;99.90
25342;DHT22;13298;48.792;9.154;2023-08-20T00:13:41;22.10;99.90
25342;DHT22;13298;48.792;9.154;2023-08-20T00:16:07;22.10;99.90
25342;DHT22;13298;48.792;9.154;2023-08-20T00:18:34;22.10;99.90
25342;DHT22;13298;48.792;9.154;2023-08-20T00:21:00;22.10;99.90
25342;DHT22;13298;48.792;9.154;2023-08-20T00:23:26;22.20;99.90
25342;DHT22;13298;48.792;9.154;2023-08-20T00:25:52;22.20;99.90
25342;DHT22;13298;48.792;9.154;2023-08-20T00:28:21;22.20;99.90
25342;DHT22;13298;48.792;9.154;2023-08-20T00:30:47;22.20;99.90
25342;DHT22;13298;48.792;9.154;2023-08-20T00:33:14;22.20;99.90
25342;DHT22;13298;48.792;9.154;2023-08-20T00:35:40;22.20;99.90
25342;DHT22;13298;48.792;9.154;2023-08-20T00:38:06;22.20;99.90
25342;DHT22;13298;48.792;9.154;2023-08-20T00:40:31;22.20;99.90
25342;DHT22;13298;48.792;9.154;2023-08-20T00:42:57;22.20;99.90
25342;DHT22;13298;48.792;9.154;2023-08-20T00:45:24;22.20;99.90
25342;DHT22;13298;48.792;9.154;2023-08-20T00:47:50;22.10;99.90
25342;DHT22;13298;48.792;9.154;2023-08-20T00:50:17;22.10;99.90
25342;DHT22;13298;48.792;9.154;2023-08-20T00:52:44;22.10;99.90
25342;DHT22;13298;48.792;9.154;2023-08-20T00:55:11;22.00;99.90
25342;DHT22;13298;48.792;9.154;2023-08-20T00:57:38;22.00;99.90
25342;DHT22;13298;48.792;9.154;2023-08-20T01:00:06;22.00;99.90
25342;DHT22;13298;48.792;9.154;2023-08-20T01:02:36;22.00;99.90
25342;DHT22;13298;48.792;9.154;2023-08-20T01:05:04;21.90;99.90
25342;DHT22;13298;48.792;9.154;2023-08-20T01:13:00;21.90;99.90
25342;DHT22;13298;48.792;9.154;2023-08-20T01:15:26;21.90;99.90
25342;DHT22;13298;48.792;9.154;2023-08-20T01:17:51;21.90;99.90
25342;DHT22;13298;48.792;9.154;2023-08-20T01:20:17;21.90;99.90
25342;DHT22;13298;48.792;9.154;2023-08-20T01:25:46;21.90;99.90
25342;DHT22;13298;48.792;9.154;2023-08-20T01:28:31;21.90;99.90
25342;DHT22;13298;48.792;9.154;2023-08-20T01:30:58;21.90;99.90
25342;DHT22;13298;48.792;9.154;2023-08-20T01:33:26;21.90;99.90
25342;DHT22;13298;48.792;9.154;2023-08-20T01:35:53;21.80;99.90
25342;DHT22;13298;48.792;9.154;2023-08-20T01:38:19;21.80;99.90
25342;DHT22;13298;48.792;9.154;2023-08-20T01:40:46;21.70;99.90
25342;DHT22;13298;48.792;9.154;2023-08-20T01:43:12;21.70;99.90
25342;DHT22;13298;48.792;9.154;2023-08-20T01:45:38;21.70;99.90
25342;DHT22;13298;48.792;9.154;2023-08-20T01:48:03;21.60;99.90
25342;DHT22;13298;48.792;9.154;2023-08-20T01:50:30;21.60;99.90
25342;DHT22;13298;48.792;9.154;2023-08-20T01:52:56;21.60;99.90
25342;DHT22;13298;48.792;9.154;2023-08-20T01:55:21;21.60;99.90
25342;DHT22;13298;48.792;9.154;2023-08-20T01:57:47;21.60;99.90
25342;DHT22;13298;48.792;9.154;2023-08-20T02:00:13;21.60;99.90
25342;DHT22;13298;48.792;9.154;2023-08-20T02:02:39;21.50;99.90
25342;DHT22;13298;48.792;9.154;2023-08-20T02:05:05;21.50;99.90
25342;DHT22;13298;48.792;9.154;2023-08-20T02:07:31;21.40;99.90
25342;DHT22;13298;48.792;9.154;2023-08-20T02:09:57;21.30;99.90
25342;DHT22;13298;48.792;9.154;2023-08-20T02:12:23;21.30;99.90
25342;DHT22;13298;48.792;9.154;2023-08-20T02:14:51;21.20;99.90
25342;DHT22;13298;48.792;9.154;2023-08-20T02:17:17;21.20;99.90
25342;DHT22;13298;48.792;9.154;2023-08-20T02:19:43;21.10;99.90
25342;DHT22;13298;48.792;9.154;2023-08-20T02:22:08;21.10;99.90
25342;DHT22;13298;48.792;9.154;2023-08-20T02:24:34;21.10;99.90
25342;DHT22;13298;48.792;9.154;2023-08-20T02:27:00;21.00;99.90
25342;DHT22;13298;48.792;9.154;2023-08-20T02:29:25;21.00;99.90
25342;DHT22;13298;48.792;9.154;2023-08-20T02:31:51;21.00;99.90
25342;DHT22;13298;48.792;9.154;2023-08-20T02:34:17;21.00;99.90
25342;DHT22;13298;48.792;9.154;2023-08-20T02:36:42;20.90;99.90
25342;DHT22;13298;48.792;9.154;2023-08-20T02:39:08;20.90;99.90
25342;DHT22;13298;48.792;9.154;2023-08-20T02:41:34;20.90;99.90
25342;DHT22;13298;48.792;9.154;2023-08-20T02:44:01;20.80;99.90
25342;DHT22;13298;48.792;9.154;2023-08-20T02:46:30;20.80;99.90
25342;DHT22;13298;48.792;9.154;2023-08-20T02:48:55;20.70;99.90
25342;DHT22;13298;48.792;9.154;2023-08-20T02:51:21;20.70;99.90
25342;DHT22;13298;48.792;9.154;2023-08-20T02:53:47;20.70;99.90
25342;DHT22;13298;48.792;9.154;2023-08-20T02:56:13;20.70;99.90
25342;DHT22;13298;48.792;9.154;2023-08-20T02:58:39;20.70;99.90
25342;DHT22;13298;48.792;9.154;2023-08-20T03:01:05;20.70;99.90
25342;DHT22;13298;48.792;9.154;2023-08-20T03:03:31;20.60;99.90
25342;DHT22;13298;48.792;9.154;2023-08-20T03:05:57;20.60;99.90
25342;DHT22;13298;48.792;9.154;2023-08-20T03:08:22;20.60;99.90
25342;DHT22;13298;48.792;9.154;2023-08-20T03:10:48;20.50;99.90
25342;DHT22;13298;48.792;9.154;2023-08-20T03:13:14;20.50;99.90
25342;DHT22;13298;48.792;9.154;2023-08-20T03:15:39;20.50;99.90
25342;DHT22;13298;48.792;9.154;2023-08-20T03:18:06;20.40;99.90
25342;DHT22;13298;48.792;9.154;2023-08-20T03:20:31;20.40;99.90
25342;DHT22;13298;48.792;9.154;2023-08-20T03:22:57;20.40;99.90
25342;DHT22;13298;48.792;9.154;2023-08-20T03:25:23;20.40;99.90
25342;DHT22;13298;48.792;9.154;2023-08-20T03:27:51;20.30;99.90
25342;DHT22;13298;48.792;9.154;2023-08-20T03:30:17;20.30;99.90
25342;DHT22;13298;48.792;9.154;2023-08-20T03:32:43;20.30;99.90
25342;DHT22;13298;48.792;9.154;2023-08-20T03:35:09;20.30;99.90
25342;DHT22;13298;48.792;9.154;2023-08-20T03:37:35;20.30;99.90
25342;DHT22;13298;48.792;9.154;2023-08-20T03:40:01;20.20;99.90
25342;DHT22;13298;48.792;9.154;2023-08-20T03:42:27;20.20;99.90
25342;DHT22;13298;48.792;9.154;2023-08-20T03:44:53;20.20;99.90
25342;DHT22;13298;48.792;9.154;2023-08-20T03:47:19;20.20;99.90
25342;DHT22;13298;48.792;9.154;2023-08-20T03:49:46;20.20;99.90
25342;DHT22;13298;48.792;9.154;2023-08-20T03:52:13;20.10;99.90
25342;DHT22;13298;48.792;9.154;2023-08-20T03:54:39;20.10;99.90
25342;DHT22;13298;48.792;9.154;2023-08-20T03:57:04;20.10;99.90
25342;DHT22;13298;48.792;9.154;2023-08-20T03:59:30;20.10;99.90
25342;DHT22;13298;48.792;9.154;2023-08-20T04:01:56;20.10;99.90
25342;DHT22;13298;48.792;9.154;2023-08-20T04:04:22;20.10;99.90
25342;DHT22;13298;48.792;9.154;2023-08-20T04:06:48;20.10;99.90
25342;DHT22;13298;48.792;9.154;2023-08-20T04:09:14;20.10;99.90
25342;DHT22;13298;48.792;9.154;2023-08-20T04:11:39;20.10;99.90
25342;DHT22;13298;48.792;9.154;2023-08-20T04:14:05;20.00;99.90
25342;DHT22;13298;48.792;9.154;2023-08-20T04:16:31;20.00;99.90
25342;DHT22;13298;48.792;9.154;2023-08-20T04:18:56;20.00;99.90
25342;DHT22;13298;48.792;9.154;2023-08-20T04:21:22;20.00;99.90
25342;DHT22;13298;48.792;9.154;2023-08-20T04:23:48;20.00;99.90
25342;DHT22;13298;48.792;9.154;2023-08-20T04:26:14;19.90;99.90
25342;DHT22;13298;48.792;9.154;2023-08-20T04:28:39;19.90;99.90
25342;DHT22;13298;48.792;9.154;2023-08-20T04:31:05;19.90;99.90
25342;DHT22;13298;48.792;9.154;2023-08-20T04:33:31;19.90;99.90
25342;DHT22;13298;48.792;9.154;2023-08-20T04:35:56;19.90;99.90
25342;DHT22;13298;48.792;9.154;2023-08-20T04:38:22;19.90;99.90
25342;DHT22;13298;48.792;9.154;2023-08-20T04:40:48;19.90;99.90
25342;DHT22;13298;48.792;9.154;2023-08-20T04:43:15;20.00;99.90
25342;DHT22;13298;48.792;9.154;2023-08-20T04:45:41;20.00;99.90
25342;DHT22;13298;48.792;9.154;2023-08-20T04:48:07;20.00;99.90
25342;DHT22;13298;48.792;9.154;2023-08-20T04:50:34;20.00;99.90
25342;DHT22;13298;48.792;9.154;2023-08-20T04:53:00;20.00;99.90
25342;DHT22;13298;48.792;9.154;2023-08-20T04:55:28;20.00;99.90
25342;DHT22;13298;48.792;9.154;2023-08-20T04:57:54;20.10;99.90
25342;DHT22;13298;48.792;9.154;2023-08-20T05:00:22;20.00;99.90
25342;DHT22;13298;48.792;9.154;2023-08-20T05:02:47;20.10;99.90
25342;DHT22;13298;48.792;9.154;2023-08-20T05:05:13;20.10;99.90
25342;DHT22;13298;48.792;9.154;2023-08-20T05:07:39;20.10;99.90
25342;DHT22;13298;48.792;9.154;2023-08-20T05:10:06;20.10;99.90
25342;DHT22;13298;48.792;9.154;2023-08-20T05:12:34;20.20;99.90
25342;DHT22;13298;48.792;9.154;2023-08-20T05:14:59;20.20;99.90
25342;DHT22;13298;48.792;9.154;2023-08-20T05:17:25;20.30;99.90
25342;DHT22;13298;48.792;9.154;2023-08-20T05:19:51;20.30;99.90
25342;DHT22;13298;48.792;9.154;2023-08-20T05:22:16;20.30;99.90
25342;DHT22;13298;48.792;9.154;2023-08-20T05:24:42;20.40;99.90
25342;DHT22;13298;48.792;9.154;2023-08-20T05:27:14;20.40;99.90
25342;DHT22;13298;48.792;9.154;2023-08-20T05:29:41;20.50;99.90
25342;DHT22;13298;48.792;9.154;2023-08-20T05:32:07;20.60;99.90
25342;DHT22;13298;48.792;9.154;2023-08-20T05:34:33;20.70;99.90
25342;DHT22;13298;48.792;9.154;2023-08-20T05:36:59;20.80;99.90
25342;DHT22;13298;48.792;9.154;2023-08-20T05:39:26;20.90;99.90
25342;DHT22;13298;48.792;9.154;2023-08-20T05:41:52;20.90;99.90
25342;DHT22;13298;48.792;9.154;2023-08-20T05:44:19;21.00;99.90
25342;DHT22;13298;48.792;9.154;2023-08-20T05:46:44;21.00;99.90
25342;DHT22;13298;48.792;9.154;2023-08-20T05:49:11;21.00;99.90
25342;DHT22;13298;48.792;9.154;2023-08-20T05:51:37;21.10;99.90
25342;DHT22;13298;48.792;9.154;2023-08-20T05:54:03;21.20;99.90
25342;DHT22;13298;48.792;9.154;2023-08-20T05:56:29;21.30;99.90
25342;DHT22;13298;48.792;9.154;2023-08-20T05:58:54;21.40;99.90
25342;DHT22;13298;48.792;9.154;2023-08-20T06:01:21;21.50;99.90
25342;DHT22;13298;48.792;9.154;2023-08-20T06:03:47;21.70;99.90
25342;DHT22;13298;48.792;9.154;2023-08-20T06:06:12;21.90;99.90
25342;DHT22;13298;48.792;9.154;2023-08-20T06:08:38;22.10;99.90
25342;DHT22;13298;48.792;9.154;2023-08-20T06:11:04;22.30;99.90
25342;DHT22;13298;48.792;9.154;2023-08-20T06:13:29;22.60;99.90
25342;DHT22;13298;48.792;9.154;2023-08-20T06:15:55;22.80;99.90
25342;DHT22;13298;48.792;9.154;2023-08-20T06:18:21;23.10;99.90
25342;DHT22;13298;48.792;9.154;2023-08-20T06:20:46;23.20;99.90
25342;DHT22;13298;48.792;9.154;2023-08-20T06:23:12;23.50;99.90
25342;DHT22;13298;48.792;9.154;2023-08-20T06:25:38;23.60;99.90
25342;DHT22;13298;48.792;9.154;2023-08-20T06:28:04;23.70;99.90
25342;DHT22;13298;48.792;9.154;2023-08-20T06:30:30;23.80;99.90
25342;DHT22;13298;48.792;9.154;2023-08-20T06:32:55;23.90;99.90
25342;DHT22;13298;48.792;9.154;2023-08-20T06:35:21;23.90;99.90
25342;DHT22;13298;48.792;9.154;2023-08-20T06:37:47;23.90;99.90
25342;DHT22;13298;48.792;9.154;2023-08-20T06:40:12;23.90;99.90
25342;DHT22;13298;48.792;9.154;2023-08-20T06:42:39;23.90;99.90
25342;DHT22;13298;48.792;9.154;2023-08-20T06:45:05;24.00;99.90
25342;DHT22;13298;48.792;9.154;2023-08-20T06:47:31;24.10;99.90
25342;DHT22;13298;48.792;9.154;2023-08-20T06:49:57;24.20;99.90
25342;DHT22;13298;48.792;9.154;2023-08-20T06:52:23;24.30;99.90
25342;DHT22;13298;48.792;9.154;2023-08-20T06:54:48;24.40;99.90
25342;DHT22;13298;48.792;9.154;2023-08-20T06:57:14;24.50;99.90
25342;DHT22;13298;48.792;9.154;2023-08-20T06:59:40;24.70;99.90
25342;DHT22;13298;48.792;9.154;2023-08-20T07:02:07;24.70;99.90
25342;DHT22;13298;48.792;9.154;2023-08-20T07:04:33;24.70;99.90
25342;DHT22;13298;48.792;9.154;2023-08-20T07:06:59;24.70;99.90
25342;DHT22;13298;48.792;9.154;2023-08-20T07:09:24;24.70;99.90
25342;DHT22;13298;48.792;9.154;2023-08-20T07:11:50;24.90;99.90
25342;DHT22;13298;48.792;9.154;2023-08-20T07:14:16;25.00;99.90
25342;DHT22;13298;48.792;9.154;2023-08-20T07:16:42;24.90;99.90
25342;DHT22;13298;48.792;9.154;2023-08-20T07:19:08;24.80;99.90
25342;DHT22;13298;48.792;9.154;2023-08-20T07:21:33;24.70;99.90
25342;DHT22;13298;48.792;9.154;2023-08-20T07:23:59;24.80;99.90
25342;DHT22;13298;48.792;9.154;2023-08-20T07:26:25;24.90;99.90
25342;DHT22;13298;48.792;9.154;2023-08-20T07:28:50;25.00;99.90
25342;DHT22;13298;48.792;9.154;2023-08-20T07:31:25;25.20;99.90
25342;DHT22;13298;48.792;9.154;2023-08-20T07:33:53;25.30;99.90
25342;DHT22;13298;48.792;9.154;2023-08-20T07:36:20;25.40;99.90
25342;DHT22;13298;48.792;9.154;2023-08-20T07:38:50;25.60;99.90
25342;DHT22;13298;48.792;9.154;2023-08-20T07:41:17;25.70;99.90
25342;DHT22;13298;48.792;9.154;2023-08-20T07:43:43;25.80;99.90
25342;DHT22;13298;48.792;9.154;2023-08-20T07:46:09;26.00;99.90
25342;DHT22;13298;48.792;9.154;2023-08-20T07:48:35;26.10;99.90
25342;DHT22;13298;48.792;9.154;2023-08-20T07:51:02;26.10;99.90
25342;DHT22;13298;48.792;9.154;2023-08-20T07:53:28;26.10;99.90
25342;DHT22;13298;48.792;9.154;2023-08-20T07:55:55;26.00;99.90
25342;DHT22;13298;48.792;9.154;2023-08-20T07:58:21;26.10;99.90
25342;DHT22;13298;48.792;9.154;2023-08-20T08:00:46;26.10;99.90
25342;DHT22;13298;48.792;9.154;2023-08-20T08:03:12;26.10;99.90
25342;DHT22;13298;48.792;9.154;2023-08-20T08:05:40;26.20;99.90
25342;DHT22;13298;48.792;9.154;2023-08-20T08:08:06;26.30;99.90
25342;DHT22;13298;48.792;9.154;2023-08-20T08:10:32;26.20;99.90
25342;DHT22;13298;48.792;9.154;2023-08-20T08:12:57;26.30;99.90
25342;DHT22;13298;48.792;9.154;2023-08-20T08:15:23;26.40;99.90
25342;DHT22;13298;48.792;9.154;2023-08-20T08:17:49;26.40;99.90
25342;DHT22;13298;48.792;9.154;2023-08-20T08:20:15;26.30;99.90
25342;DHT22;13298;48.792;9.154;2023-08-20T08:22:40;26.10;99.90
25342;DHT22;13298;48.792;9.154;2023-08-20T08:25:06;26.10;99.90
25342;DHT22;13298;48.792;9.154;2023-08-20T08:27:32;26.20;99.90
25342;DHT22;13298;48.792;9.154;2023-08-20T08:29:57;26.40;99.90
25342;DHT22;13298;48.792;9.154;2023-08-20T08:32:23;26.40;99.90
25342;DHT22;13298;48.792;9.154;2023-08-20T08:34:49;26.50;99.90
25342;DHT22;13298;48.792;9.154;2023-08-20T08:37:15;26.60;99.90
25342;DHT22;13298;48.792;9.154;2023-08-20T08:39:41;26.60;99.90
25342;DHT22;13298;48.792;9.154;2023-08-20T08:42:07;26.60;99.90
25342;DHT22;13298;48.792;9.154;2023-08-20T08:44:37;26.70;99.90
25342;DHT22;13298;48.792;9.154;2023-08-20T08:47:04;26.80;99.90
25342;DHT22;13298;48.792;9.154;2023-08-20T08:49:33;26.90;99.90
25342;DHT22;13298;48.792;9.154;2023-08-20T08:52:00;27.00;99.90
25342;DHT22;13298;48.792;9.154;2023-08-20T08:54:27;27.00;99.90
25342;DHT22;13298;48.792;9.154;2023-08-20T08:56:53;27.00;99.90
25342;DHT22;13298;48.792;9.154;2023-08-20T08:59:21;27.10;99.90
25342;DHT22;13298;48.792;9.154;2023-08-20T09:01:47;27.10;99.90
25342;DHT22;13298;48.792;9.154;2023-08-20T09:04:13;27.10;99.90
25342;DHT22;13298;48.792;9.154;2023-08-20T09:06:50;27.10;99.90
25342;DHT22;13298;48.792;9.154;2023-08-20T09:09:17;27.20;99.90
25342;DHT22;13298;48.792;9.154;2023-08-20T09:11:44;27.10;99.90
25342;DHT22;13298;48.792;9.154;2023-08-20T09:14:29;27.10;99.90
25342;DHT22;13298;48.792;9.154;2023-08-20T09:16:59;27.00;99.90
25342;DHT22;13298;48.792;9.154;2023-08-20T09:19:30;27.00;99.90
25342;DHT22;13298;48.792;9.154;2023-08-20T09:21:59;27.10;99.90
25342;DHT22;13298;48.792;9.154;2023-08-20T09:24:38;27.30;99.90
25342;DHT22;13298;48.792;9.154;2023-08-20T09:27:05;27.40;99.90
25342;DHT22;13298;48.792;9.154;2023-08-20T09:29:47;27.40;99.90
25342;DHT22;13298;48.792;9.154;2023-08-20T09:32:21;27.50;99.90
25342;DHT22;13298;48.792;9.154;2023-08-20T09:34:49;27.60;99.90
25342;DHT22;13298;48.792;9.154;2023-08-20T09:37:17;27.60;99.90
25342;DHT22;13298;48.792;9.154;2023-08-20T09:39:47;27.60;99.90
25342;DHT22;13298;48.792;9.154;2023-08-20T09:42:13;27.60;99.90
25342;DHT22;13298;48.792;9.154;2023-08-20T09:44:44;27.60;99.90
25342;DHT22;13298;48.792;9.154;2023-08-20T09:47:12;27.70;99.90
25342;DHT22;13298;48.792;9.154;2023-08-20T09:49:43;27.80;99.90
25342;DHT22;13298;48.792;9.154;2023-08-20T09:52:11;27.90;99.90
25342;DHT22;13298;48.792;9.154;2023-08-20T09:55:00;27.90;99.90
25342;DHT22;13298;48.792;9.154;2023-08-20T09:57:37;27.90;99.90
25342;DHT22;13298;48.792;9.154;2023-08-20T10:00:05;27.90;99.90
25342;DHT22;13298;48.792;9.154;2023-08-20T10:02:38;27.90;99.90
25342;DHT22;13298;48.792;9.154;2023-08-20T10:05:11;27.90;99.90
25342;DHT22;13298;48.792;9.154;2023-08-20T10:07:38;28.00;99.90
25342;DHT22;13298;48.792;9.154;2023-08-20T10:10:09;28.00;99.90
25342;DHT22;13298;48.792;9.154;2023-08-20T10:12:39;28.00;99.90
25342;DHT22;13298;48.792;9.154;2023-08-20T10:15:07;28.00;99.90
25342;DHT22;13298;48.792;9.154;2023-08-20T10:17:34;28.00;99.90
25342;DHT22;13298;48.792;9.154;2023-08-20T10:20:02;28.00;99.90
25342;DHT22;13298;48.792;9.154;2023-08-20T10:22:35;28.10;99.90
25342;DHT22;13298;48.792;9.154;2023-08-20T10:25:12;28.20;99.90
25342;DHT22;13298;48.792;9.154;2023-08-20T10:27:47;28.30;99.90
25342;DHT22;13298;48.792;9.154;2023-08-20T10:30:39;28.40;99.90
25342;DHT22;13298;48.792;9.154;2023-08-20T10:33:36;28.50;99.90
25342;DHT22;13298;48.792;9.154;2023-08-20T10:36:19;28.60;99.90
25342;DHT22;13298;48.792;9.154;2023-08-20T10:38:48;28.60;99.90
25342;DHT22;13298;48.792;9.154;2023-08-20T10:41:15;28.60;99.90
25342;DHT22;13298;48.792;9.154;2023-08-20T10:43:49;28.70;99.90
25342;DHT22;13298;48.792;9.154;2023-08-20T10:46:23;28.80;99.90
25342;DHT22;13298;48.792;9.154;2023-08-20T10:54:09;28.80;99.90
25342;DHT22;13298;48.792;9.154;2023-08-20T10:56:44;28.90;99.90
25342;DHT22;13298;48.792;9.154;2023-08-20T10:59:20;28.90;99.90
25342;DHT22;13298;48.792;9.154;2023-08-20T11:01:48;28.90;99.90
25342;DHT22;13298;48.792;9.154;2023-08-20T11:04:25;28.90;99.90
25342;DHT22;13298;48.792;9.154;2023-08-20T11:06:55;28.90;99.90
25342;DHT22;13298;48.792;9.154;2023-08-20T11:09:22;28.90;99.90
25342;DHT22;13298;48.792;9.154;2023-08-20T11:11:50;28.90;99.90
25342;DHT22;13298;48.792;9.154;2023-08-20T11:14:19;28.90;99.90
25342;DHT22;13298;48.792;9.154;2023-08-20T11:16:46;28.90;99.90
25342;DHT22;13298;48.792;9.154;2023-08-20T11:19:13;28.90;99.90
25342;DHT22;13298;48.792;9.154;2023-08-20T11:21:40;28.90;99.90
25342;DHT22;13298;48.792;9.154;2023-08-20T11:24:07;28.90;99.90
25342;DHT22;13298;48.792;9.154;2023-08-20T11:26:34;29.00;99.90
25342;DHT22;13298;48.792;9.154;2023-08-20T11:29:01;29.00;99.90
25342;DHT22;13298;48.792;9.154;2023-08-20T11:31:28;29.00;99.90
25342;DHT22;13298;48.792;9.154;2023-08-20T11:33:56;29.20;99.90
25342;DHT22;13298;48.792;9.154;2023-08-20T11:36:23;29.20;99.90
25342;DHT22;13298;48.792;9.154;2023-08-20T11:38:50;29.20;99.90
25342;DHT22;13298;48.792;9.154;2023-08-20T11:41:18;29.20;99.90
25342;DHT22;13298;48.792;9.154;2023-08-20T11:43:44;29.30;99.90
25342;DHT22;13298;48.792;9.154;2023-08-20T11:46:14;29.40;99.90
25342;DHT22;13298;48.792;9.154;2023-08-20T11:48:59;29.40;99.90
25342;DHT22;13298;48.792;9.154;2023-08-20T11:51:47;29.40;99.90
25342;DHT22;13298;48.792;9.154;2023-08-20T11:54:16;29.50;99.90
25342;DHT22;13298;48.792;9.154;2023-08-20T11:56:47;29.60;99.90
25342;DHT22;13298;48.792;9.154;2023-08-20T11:59:15;29.60;99.90
25342;DHT22;13298;48.792;9.154;2023-08-20T12:01:42;29.60;99.90
25342;DHT22;13298;48.792;9.154;2023-08-20T12:04:09;29.60;99.90
25342;DHT22;13298;48.792;9.154;2023-08-20T12:06:37;29.70;99.90
25342;DHT22;13298;48.792;9.154;2023-08-20T12:09:20;29.90;99.90
25342;DHT22;13298;48.792;9.154;2023-08-20T12:11:49;30.00;99.90
25342;DHT22;13298;48.792;9.154;2023-08-20T12:14:18;30.20;99.90
25342;DHT22;13298;48.792;9.154;2023-08-20T12:16:44;30.30;99.90
25342;DHT22;13298;48.792;9.154;2023-08-20T12:19:10;30.30;99.90
25342;DHT22;13298;48.792;9.154;2023-08-20T12:21:35;30.30;99.90
25342;DHT22;13298;48.792;9.154;2023-08-20T12:24:01;30.30;99.90
25342;DHT22;13298;48.792;9.154;2023-08-20T12:26:27;30.40;99.90
25342;DHT22;13298;48.792;9.154;2023-08-20T12:28:52;30.50;99.90
25342;DHT22;13298;48.792;9.154;2023-08-20T12:31:18;30.60;99.90
25342;DHT22;13298;48.792;9.154;2023-08-20T12:33:44;30.60;99.90
25342;DHT22;13298;48.792;9.154;2023-08-20T12:36:09;30.60;99.90
25342;DHT22;13298;48.792;9.154;2023-08-20T12:38:35;30.70;99.90
25342;DHT22;13298;48.792;9.154;2023-08-20T12:41:01;30.80;99.90
25342;DHT22;13298;48.792;9.154;2023-08-20T12:43:29;30.80;99.90
25342;DHT22;13298;48.792;9.154;2023-08-20T12:45:55;30.70;99.90
25342;DHT22;13298;48.792;9.154;2023-08-20T12:48:20;30.70;99.90
25342;DHT22;13298;48.792;9.154;2023-08-20T12:50:46;30.70;99.90
25342;DHT22;13298;48.792;9.154;2023-08-20T12:53:11;30.80;99.90
25342;DHT22;13298;48.792;9.154;2023-08-20T12:55:38;30.90;99.50
25342;DHT22;13298;48.792;9.154;2023-08-20T12:58:04;30.90;99.90
25342;DHT22;13298;48.792;9.154;2023-08-20T13:00:29;30.90;99.90
25342;DHT22;13298;48.792;9.154;2023-08-20T13:02:55;30.90;99.50
25342;DHT22;13298;48.792;9.154;2023-08-20T13:05:25;30.90;99.50
25342;DHT22;13298;48.792;9.154;2023-08-20T13:07:52;30.90;99.90
25342;DHT22;13298;48.792;9.154;2023-08-20T13:10:18;31.00;99.30
25342;DHT22;13298;48.792;9.154;2023-08-20T13:12:50;31.10;98.90
25342;DHT22;13298;48.792;9.154;2023-08-20T13:15:19;31.10;99.20
25342;DHT22;13298;48.792;9.154;2023-08-20T13:17:47;31.00;98.90
25342;DHT22;13298;48.792;9.154;2023-08-20T13:20:14;31.00;98.90
25342;DHT22;13298;48.792;9.154;2023-08-20T13:22:46;31.10;99.30
25342;DHT22;13298;48.792;9.154;2023-08-20T13:25:12;31.10;99.30
25342;DHT22;13298;48.792;9.154;2023-08-20T13:27:38;31.10;98.60
25342;DHT22;13298;48.792;9.154;2023-08-20T13:30:05;31.00;99.40
25342;DHT22;13298;48.792;9.154;2023-08-20T13:32:31;31.00;99.90
25342;DHT22;13298;48.792;9.154;2023-08-20T13:34:56;31.00;99.80
25342;DHT22;13298;48.792;9.154;2023-08-20T13:37:22;31.10;99.90
25342;DHT22;13298;48.792;9.154;2023-08-20T13:39:48;31.20;99.70
25342;DHT22;13298;48.792;9.154;2023-08-20T13:42:13;31.20;99.90
25342;DHT22;13298;48.792;9.154;2023-08-20T13:44:39;31.10;99.90
25342;DHT22;13298;48.792;9.154;2023-08-20T13:47:05;31.10;99.10
25342;DHT22;13298;48.792;9.154;2023-08-20T13:49:30;31.00;98.90
25342;DHT22;13298;48.792;9.154;2023-08-20T13:51:56;31.00;98.50
25342;DHT22;13298;48.792;9.154;2023-08-20T13:54:22;31.10;99.40
25342;DHT22;13298;48.792;9.154;2023-08-20T13:56:47;31.10;99.90
25342;DHT22;13298;48.792;9.154;2023-08-20T13:59:13;31.20;99.70
25342;DHT22;13298;48.792;9.154;2023-08-20T14:01:39;31.30;99.90
25342;DHT22;13298;48.792;9.154;2023-08-20T14:04:05;31.30;99.60
25342;DHT22;13298;48.792;9.154;2023-08-20T14:06:30;31.30;99.40
25342;DHT22;13298;48.792;9.154;2023-08-20T14:08:56;31.30;99.70
25342;DHT22;13298;48.792;9.154;2023-08-20T14:11:22;31.30;99.60
25342;DHT22;13298;48.792;9.154;2023-08-20T14:13:48;31.30;99.90
25342;DHT22;13298;48.792;9.154;2023-08-20T14:16:14;31.30;99.60
25342;DHT22;13298;48.792;9.154;2023-08-20T14:18:40;31.30;99.90
25342;DHT22;13298;48.792;9.154;2023-08-20T14:21:06;31.30;98.90
25342;DHT22;13298;48.792;9.154;2023-08-20T14:23:31;31.30;98.80
25342;DHT22;13298;48.792;9.154;2023-08-20T14:25:57;31.30;99.40
25342;DHT22;13298;48.792;9.154;2023-08-20T14:28:23;31.30;99.60
25342;DHT22;13298;48.792;9.154;2023-08-20T14:30:49;31.30;98.10
25342;DHT22;13298;48.792;9.154;2023-08-20T14:33:20;31.30;98.90
25342;DHT22;13298;48.792;9.154;2023-08-20T14:35:46;31.10;98.60
25342;DHT22;13298;48.792;9.154;2023-08-20T14:38:12;31.00;99.60
25342;DHT22;13298;48.792;9.154;2023-08-20T14:40:40;30.80;99.70
25342;DHT22;13298;48.792;9.154;2023-08-20T14:43:06;30.70;99.70
25342;DHT22;13298;48.792;9.154;2023-08-20T14:45:32;30.70;99.50
25342;DHT22;13298;48.792;9.154;2023-08-20T14:47:58;30.80;99.20
25342;DHT22;13298;48.792;9.154;2023-08-20T14:50:24;30.90;99.30
25342;DHT22;13298;48.792;9.154;2023-08-20T14:52:50;30.90;99.00
25342;DHT22;13298;48.792;9.154;2023-08-20T14:55:20;30.80;98.40
25342;DHT22;13298;48.792;9.154;2023-08-20T14:57:46;30.70;98.50
25342;DHT22;13298;48.792;9.154;2023-08-20T15:00:13;30.70;98.60
25342;DHT22;13298;48.792;9.154;2023-08-20T15:02:48;30.50;98.50
25342;DHT22;13298;48.792;9.154;2023-08-20T15:05:14;30.40;98.70
25342;DHT22;13298;48.792;9.154;2023-08-20T15:07:40;30.30;99.00
25342;DHT22;13298;48.792;9.154;2023-08-20T15:10:06;30.30;99.10
25342;DHT22;13298;48.792;9.154;2023-08-20T15:12:36;30.40;99.10
25342;DHT22;13298;48.792;9.154;2023-08-20T15:15:03;30.50;99.20
25342;DHT22;13298;48.792;9.154;2023-08-20T15:17:30;30.60;99.20
25342;DHT22;13298;48.792;9.154;2023-08-20T15:19:57;30.90;99.30
25342;DHT22;13298;48.792;9.154;2023-08-20T15:22:23;31.10;98.50
25342;DHT22;13298;48.792;9.154;2023-08-20T15:24:48;31.20;99.40
25342;DHT22;13298;48.792;9.154;2023-08-20T15:27:19;31.20;97.80
25342;DHT22;13298;48.792;9.154;2023-08-20T15:29:45;31.10;98.30
25342;DHT22;13298;48.792;9.154;2023-08-20T15:32:11;31.00;98.60
25342;DHT22;13298;48.792;9.154;2023-08-20T15:34:37;31.00;98.60
25342;DHT22;13298;48.792;9.154;2023-08-20T15:37:03;31.00;98.50
25342;DHT22;13298;48.792;9.154;2023-08-20T15:39:32;30.90;98.00
25342;DHT22;13298;48.792;9.154;2023-08-20T15:41:58;30.90;97.50
25342;DHT22;13298;48.792;9.154;2023-08-20T15:44:24;30.80;97.70